createdAt,value
2019-05-03T00:02:18.477Z,9.55
2019-05-03T00:04:48.861Z,9.55
2019-05-03T00:07:17.325Z,9.48
2019-05-03T00:09:45.967Z,9.47
2019-05-03T00:12:14.574Z,9.48
2019-05-03T00:14:44.710Z,9.45
2019-05-03T00:17:13.674Z,9.47
2019-05-03T00:19:42.362Z,9.41
2019-05-03T00:22:12.424Z,9.34
2019-05-03T00:24:42.652Z,9.34
2019-05-03T00:27:12.578Z,9.36
2019-05-03T00:29:41.787Z,9.39
2019-05-03T00:32:12.305Z,9.42
2019-05-03T00:34:48.303Z,9.29
2019-05-03T00:37:22.105Z,9.26
2019-05-03T00:40:07.391Z,9.24
2019-05-03T00:42:35.870Z,9.26
2019-05-03T00:45:06.696Z,9.27
2019-05-03T00:47:35.146Z,9.25
2019-05-03T00:50:04.695Z,9.23
2019-05-03T00:52:33.182Z,9.15
2019-05-03T00:55:02.189Z,9.14
2019-05-03T00:57:32.345Z,9.07
2019-05-03T01:00:02.078Z,9.03
2019-05-03T01:02:31.885Z,9.00
2019-05-03T01:05:02.617Z,8.94
2019-05-03T01:07:31.890Z,8.93
2019-05-03T01:10:02.728Z,8.89
2019-05-03T01:12:32.457Z,8.87
2019-05-03T01:15:02.801Z,8.88
2019-05-03T01:17:32.325Z,8.81
2019-05-03T01:20:02.732Z,8.80
2019-05-03T01:22:32.232Z,8.76
2019-05-03T01:25:02.917Z,8.76
2019-05-03T01:27:32.685Z,8.73
2019-05-03T01:30:02.894Z,8.71
2019-05-03T01:32:32.867Z,8.63
2019-05-03T01:35:03.133Z,8.63
2019-05-03T01:37:32.161Z,8.55
2019-05-03T01:40:02.309Z,8.53
2019-05-03T01:42:32.108Z,8.52
2019-05-03T01:45:01.845Z,8.53
2019-05-03T01:47:32.595Z,8.48
2019-05-03T01:50:02.971Z,8.45
2019-05-03T01:52:33.088Z,8.45
2019-05-03T01:55:03.322Z,8.44
2019-05-03T01:57:32.479Z,8.45
2019-05-03T02:00:02.820Z,8.44
2019-05-03T02:02:32.853Z,8.45
2019-05-03T02:05:18.019Z,8.41
2019-05-03T02:07:48.606Z,8.47
2019-05-03T02:10:16.727Z,8.43
2019-05-03T02:12:45.204Z,8.37
2019-05-03T02:15:13.719Z,8.37
2019-05-03T02:17:42.652Z,8.39
2019-05-03T02:20:12.600Z,8.40
2019-05-03T02:22:42.800Z,8.35
2019-05-03T02:25:12.383Z,8.43
2019-05-03T02:27:42.305Z,8.33
2019-05-03T02:30:14.329Z,8.39
2019-05-03T02:32:43.897Z,8.32
2019-05-03T02:35:13.954Z,8.35
2019-05-03T02:37:44.186Z,8.33
2019-05-03T02:40:13.294Z,8.34
2019-05-03T02:42:46.117Z,8.34
2019-05-03T02:45:21.473Z,8.36
2019-05-03T02:47:51.589Z,8.39
2019-05-03T02:50:20.111Z,8.39
2019-05-03T02:52:48.616Z,8.42
2019-05-03T02:55:17.412Z,8.38
2019-05-03T02:57:46.830Z,8.26
2019-05-03T03:00:16.636Z,8.31
2019-05-03T03:02:45.800Z,8.22
2019-05-03T03:05:16.717Z,8.24
2019-05-03T03:07:46.936Z,8.20
2019-05-03T03:10:16.499Z,8.14
2019-05-03T03:12:46.894Z,8.06
2019-05-03T03:15:16.358Z,8.05
2019-05-03T03:17:47.192Z,8.06
2019-05-03T03:20:16.340Z,7.99
2019-05-03T03:22:45.792Z,7.94
2019-05-03T03:25:17.526Z,7.90
2019-05-03T03:27:48.154Z,7.85
2019-05-03T03:30:38.175Z,7.80
2019-05-03T03:33:09.696Z,7.78
2019-05-03T03:35:39.176Z,7.71
2019-05-03T03:38:08.221Z,7.64
2019-05-03T03:40:38.226Z,7.69
2019-05-03T03:43:08.274Z,7.62
2019-05-03T03:45:38.780Z,7.60
2019-05-03T03:48:10.551Z,7.55
2019-05-03T03:50:41.948Z,7.49
2019-05-03T03:53:12.259Z,7.49
2019-05-03T03:55:45.673Z,7.40
2019-05-03T03:58:21.173Z,7.35
2019-05-03T04:00:46.417Z,7.27
2019-05-03T04:03:15.832Z,7.24
2019-05-03T04:05:46.692Z,7.28
2019-05-03T04:08:16.181Z,7.21
2019-05-03T04:10:46.306Z,7.20
2019-05-03T04:13:16.168Z,7.16
2019-05-03T04:15:46.436Z,7.17
2019-05-03T04:18:29.988Z,7.14
2019-05-03T04:20:58.494Z,7.13
2019-05-03T04:23:29.543Z,7.14
2019-05-03T04:25:58.813Z,7.10
2019-05-03T04:28:27.458Z,7.17
2019-05-03T04:30:56.054Z,7.06
2019-05-03T04:33:26.901Z,7.13
2019-05-03T04:35:55.702Z,7.13
2019-05-03T04:38:25.583Z,7.14
2019-05-03T04:40:56.225Z,7.08
2019-05-03T04:43:26.387Z,7.19
2019-05-03T04:46:06.772Z,7.16
2019-05-03T04:48:35.943Z,7.24
2019-05-03T04:51:05.877Z,7.33
2019-05-03T04:53:36.340Z,7.27
2019-05-03T04:56:05.708Z,7.36
2019-05-03T04:58:36.407Z,7.37
2019-05-03T05:01:06.410Z,7.38
2019-05-03T05:03:36.083Z,7.34
2019-05-03T05:06:06.235Z,7.36
2019-05-03T05:08:35.829Z,7.41
2019-05-03T05:11:05.798Z,7.40
2019-05-03T05:13:35.575Z,7.45
2019-05-03T05:16:05.870Z,7.47
2019-05-03T05:18:36.392Z,7.38
2019-05-03T05:21:18.267Z,7.33
2019-05-03T05:24:00.444Z,7.31
2019-05-03T05:26:30.581Z,7.35
2019-05-03T05:29:00.688Z,7.40
2019-05-03T05:31:29.161Z,7.51
2019-05-03T05:33:57.631Z,7.73
2019-05-03T05:36:26.103Z,7.81
2019-05-03T05:38:55.222Z,7.93
2019-05-03T05:41:24.488Z,8.04
2019-05-03T05:43:54.838Z,8.25
2019-05-03T05:46:25.011Z,8.26
2019-05-03T05:48:55.456Z,8.19
2019-05-03T05:51:24.846Z,8.61
2019-05-03T05:53:54.928Z,8.92
2019-05-03T05:56:35.327Z,8.91
2019-05-03T05:59:08.240Z,8.86
2019-05-03T06:01:38.444Z,9.01
2019-05-03T06:04:09.826Z,9.23
2019-05-03T06:06:55.404Z,9.39
2019-05-03T06:09:31.248Z,9.64
2019-05-03T06:12:09.868Z,9.93
2019-05-03T06:14:42.667Z,9.96
2019-05-03T06:17:14.621Z,10.17
2019-05-03T06:19:45.012Z,10.24
2019-05-03T06:22:15.417Z,10.34
2019-05-03T06:25:00.610Z,10.69
2019-05-03T06:27:30.724Z,10.82
2019-05-03T06:30:00.910Z,10.85
2019-05-03T06:32:34.570Z,10.98
2019-05-03T06:35:04.947Z,11.20
2019-05-03T06:37:41.015Z,11.48
2019-05-03T06:40:09.928Z,11.83
2019-05-03T06:42:51.235Z,11.97
2019-05-03T06:45:11.644Z,12.32
2019-05-03T06:47:40.310Z,11.78
2019-05-03T06:50:09.890Z,11.70
2019-05-03T06:52:38.370Z,11.46
2019-05-03T06:55:10.450Z,12.21
2019-05-03T06:57:40.037Z,12.23
2019-05-03T07:00:11.430Z,12.32
2019-05-03T07:02:41.554Z,12.66
2019-05-03T07:05:28.199Z,13.11
2019-05-03T07:08:01.310Z,13.56
2019-05-03T07:10:37.573Z,14.08
2019-05-03T07:13:08.754Z,14.09
2019-05-03T07:15:36.286Z,13.43
2019-05-03T07:18:05.758Z,13.16
2019-05-03T07:20:54.379Z,13.65
2019-05-03T07:23:21.789Z,14.52
2019-05-03T07:25:50.270Z,14.00
2019-05-03T07:28:18.771Z,13.77
2019-05-03T07:30:47.234Z,13.57
2019-05-03T07:33:20.343Z,13.40
2019-05-03T07:35:48.797Z,13.39
2019-05-03T07:38:17.272Z,13.86
2019-05-03T07:40:45.785Z,14.11
2019-05-03T07:43:14.847Z,13.91
2019-05-03T07:45:44.682Z,13.58
2019-05-03T07:48:15.024Z,13.45
2019-05-03T07:50:44.730Z,13.83
2019-05-03T07:53:15.010Z,13.91
2019-05-03T07:55:57.087Z,13.50
2019-05-03T07:58:27.179Z,13.47
2019-05-03T08:01:06.258Z,13.81
2019-05-03T08:03:30.181Z,14.12
2019-05-03T08:05:58.660Z,14.52
2019-05-03T08:08:27.305Z,15.14
2019-05-03T08:10:55.788Z,14.80
2019-05-03T08:13:25.363Z,14.21
2019-05-03T08:15:55.762Z,14.80
2019-05-03T08:18:25.656Z,14.50
2019-05-03T08:20:55.613Z,14.83
2019-05-03T08:23:29.292Z,15.02
2019-05-03T08:25:55.627Z,14.69
2019-05-03T08:28:24.661Z,14.71
2019-05-03T08:31:01.085Z,15.20
2019-05-03T08:33:44.820Z,15.43
2019-05-03T08:36:15.502Z,16.51
2019-05-03T08:38:45.254Z,16.19
2019-05-03T08:41:15.502Z,16.66
2019-05-03T08:43:44.613Z,16.94
2019-05-03T08:46:14.819Z,17.13
2019-05-03T08:48:45.565Z,17.66
2019-05-03T08:51:14.878Z,17.82
2019-05-03T08:53:45.674Z,17.47
2019-05-03T08:56:15.510Z,17.93
2019-05-03T08:58:45.124Z,18.35
2019-05-03T09:01:14.772Z,18.73
2019-05-03T09:03:45.602Z,18.51
2019-05-03T09:06:15.488Z,18.55
2019-05-03T09:08:45.794Z,18.55
2019-05-03T09:11:16.026Z,18.80
2019-05-03T09:13:57.706Z,18.96
2019-05-03T09:16:26.197Z,18.09
2019-05-03T09:18:55.034Z,18.70
2019-05-03T09:21:25.492Z,19.44
2019-05-03T09:23:55.371Z,18.97
2019-05-03T09:26:28.955Z,19.46
2019-05-03T09:28:55.634Z,18.20
2019-05-03T09:31:24.761Z,17.55
2019-05-03T09:33:54.832Z,17.25
2019-05-03T09:36:25.291Z,17.03
2019-05-03T09:38:54.959Z,17.08
2019-05-03T09:41:25.630Z,16.49
2019-05-03T09:43:55.431Z,16.64
2019-05-03T09:46:26.302Z,17.45
2019-05-03T09:49:09.481Z,17.64
2019-05-03T09:51:25.554Z,18.37
2019-05-03T09:54:14.841Z,18.76
2019-05-03T09:57:00.149Z,18.07
2019-05-03T09:59:29.574Z,16.99
2019-05-03T10:01:58.713Z,16.54
2019-05-03T10:04:27.172Z,16.48
2019-05-03T10:06:55.660Z,16.94
2019-05-03T10:09:26.076Z,17.82
2019-05-03T10:11:55.145Z,18.36
2019-05-03T10:14:24.017Z,18.24
2019-05-03T10:16:54.734Z,18.84
2019-05-03T10:19:34.853Z,18.98
2019-05-03T10:21:53.693Z,17.65
2019-05-03T10:24:22.153Z,16.58
2019-05-03T10:26:50.652Z,16.42
2019-05-03T10:29:19.121Z,16.15
2019-05-03T10:31:55.178Z,16.67
2019-05-03T10:34:24.802Z,17.10
2019-05-03T10:36:54.853Z,17.79
2019-05-03T10:39:26.093Z,16.70
2019-05-03T10:41:54.962Z,16.53
2019-05-03T10:44:24.560Z,16.53
2019-05-03T10:46:53.226Z,15.92
2019-05-03T10:49:21.777Z,15.09
2019-05-03T10:51:58.088Z,14.94
2019-05-03T10:54:26.562Z,14.77
2019-05-03T10:56:59.212Z,14.42
2019-05-03T10:59:27.711Z,14.05
2019-05-03T11:02:13.960Z,14.14
2019-05-03T11:04:44.270Z,13.82
2019-05-03T11:07:14.782Z,13.40
2019-05-03T11:09:49.657Z,13.45
2019-05-03T11:12:14.798Z,13.57
2019-05-03T11:14:45.391Z,13.18
2019-05-03T11:17:14.869Z,12.79
2019-05-03T11:19:45.258Z,12.84
2019-05-03T11:22:14.608Z,12.71
2019-05-03T11:24:45.189Z,12.74
2019-05-03T11:27:15.021Z,12.94
2019-05-03T11:29:45.052Z,13.00
2019-05-03T11:32:27.435Z,13.25
2019-05-03T11:35:11.669Z,13.17
2019-05-03T11:37:47.617Z,13.17
2019-05-03T11:40:16.541Z,13.06
2019-05-03T11:42:45.316Z,12.99
2019-05-03T11:45:15.264Z,13.06
2019-05-03T11:47:45.707Z,13.15
2019-05-03T11:50:14.943Z,13.03
2019-05-03T11:52:46.797Z,13.27
2019-05-03T11:55:15.963Z,13.05
2019-05-03T11:57:45.025Z,13.07
2019-05-03T12:00:15.876Z,13.21
2019-05-03T12:02:45.977Z,13.24
2019-05-03T12:05:19.068Z,13.28
2019-05-03T12:07:47.544Z,13.25
2019-05-03T12:10:32.784Z,13.40
2019-05-03T12:13:00.199Z,13.24
2019-05-03T12:15:28.680Z,13.27
2019-05-03T12:17:59.553Z,13.28
2019-05-03T12:20:29.865Z,13.16
2019-05-03T12:22:59.250Z,13.16
2019-05-03T12:25:28.652Z,13.02
2019-05-03T12:27:57.352Z,12.86
2019-05-03T12:30:27.782Z,12.92
2019-05-03T12:32:56.002Z,12.89
2019-05-03T12:35:24.737Z,12.77
2019-05-03T12:37:55.363Z,12.87
2019-05-03T12:40:25.358Z,13.03
2019-05-03T12:42:55.297Z,13.05
2019-05-03T12:45:24.747Z,13.03
2019-05-03T12:47:55.707Z,13.16
2019-05-03T12:50:25.182Z,13.24
2019-05-03T12:52:55.401Z,13.17
2019-05-03T12:55:24.795Z,13.20
2019-05-03T12:57:55.299Z,13.32
2019-05-03T13:00:41.897Z,13.44
2019-05-03T13:03:12.001Z,13.49
2019-05-03T13:05:40.507Z,13.48
2019-05-03T13:08:35.245Z,13.43
2019-05-03T13:11:05.232Z,13.41
2019-05-03T13:13:35.938Z,13.36
2019-05-03T13:16:04.956Z,13.28
2019-05-03T13:18:35.003Z,13.22
2019-05-03T13:21:05.711Z,13.16
2019-05-03T13:23:35.285Z,13.12
2019-05-03T13:26:05.934Z,13.00
2019-05-03T13:28:34.898Z,12.82
2019-05-03T13:31:05.702Z,12.76
2019-05-03T13:33:34.855Z,12.74
2019-05-03T13:36:03.646Z,12.68
2019-05-03T13:38:32.130Z,12.56
2019-05-03T13:41:00.606Z,12.70
2019-05-03T13:43:29.058Z,12.51
2019-05-03T13:45:57.552Z,12.55
2019-05-03T13:48:26.568Z,12.53
2019-05-03T13:50:55.265Z,12.52
2019-05-03T13:53:25.409Z,12.46
2019-05-03T13:55:55.222Z,12.44
2019-05-03T13:58:26.197Z,12.57
2019-05-03T14:00:54.997Z,12.64
2019-05-03T14:03:23.690Z,12.73
2019-05-03T14:05:52.230Z,12.84
2019-05-03T14:08:20.776Z,12.79
2019-05-03T14:10:49.242Z,12.75
2019-05-03T14:13:17.730Z,12.80
2019-05-03T14:15:46.216Z,12.82
2019-05-03T14:18:15.368Z,12.66
2019-05-03T14:20:51.513Z,12.62
2019-05-03T14:23:20.056Z,12.42
2019-05-03T14:25:48.529Z,12.30
2019-05-03T14:28:17.013Z,12.44
2019-05-03T14:30:45.881Z,12.48
2019-05-03T14:33:14.377Z,12.51
2019-05-03T14:35:42.835Z,12.34
2019-05-03T14:38:11.323Z,12.20
2019-05-03T14:40:39.796Z,12.03
2019-05-03T14:43:08.463Z,11.98
2019-05-03T14:45:36.960Z,11.94
2019-05-03T14:48:06.334Z,11.78
2019-05-03T14:50:35.249Z,11.78
2019-05-03T14:53:05.463Z,11.80
2019-05-03T14:55:38.944Z,11.64
2019-05-03T14:58:25.875Z,11.57
2019-05-03T15:01:08.421Z,11.47
2019-05-03T15:03:37.682Z,11.55
2019-05-03T15:06:06.143Z,11.52
2019-05-03T15:08:35.093Z,11.60
2019-05-03T15:11:05.285Z,11.70
2019-05-03T15:13:34.991Z,11.68
2019-05-03T15:16:05.232Z,11.47
2019-05-03T15:18:34.851Z,11.40
2019-05-03T15:21:05.352Z,11.42
2019-05-03T15:23:34.712Z,11.24
2019-05-03T15:26:05.157Z,11.21
2019-05-03T15:28:35.582Z,11.23
2019-05-03T15:31:04.584Z,11.21
2019-05-03T15:33:35.206Z,11.24
2019-05-03T15:36:04.743Z,11.48
2019-05-03T15:38:34.647Z,11.16
2019-05-03T15:41:05.207Z,11.12
2019-05-03T15:43:50.150Z,11.09
2019-05-03T15:46:20.267Z,11.10
2019-05-03T15:48:50.404Z,11.00
2019-05-03T15:51:18.854Z,11.05
2019-05-03T15:53:47.321Z,11.07
2019-05-03T15:56:15.784Z,10.95
2019-05-03T15:58:46.848Z,11.03
2019-05-03T16:01:15.312Z,11.12
2019-05-03T16:03:44.890Z,11.07
2019-05-03T16:06:15.315Z,11.00
2019-05-03T16:08:44.617Z,11.07
2019-05-03T16:11:14.815Z,11.14
2019-05-03T16:13:44.807Z,11.29
2019-05-03T16:16:15.209Z,11.20
2019-05-03T16:18:44.851Z,11.12
2019-05-03T16:21:14.652Z,11.16
2019-05-03T16:23:46.371Z,11.16
2019-05-03T16:26:14.346Z,11.11
2019-05-03T16:29:01.214Z,11.12
2019-05-03T16:31:29.874Z,11.19
2019-05-03T16:33:58.339Z,11.16
2019-05-03T16:36:26.835Z,11.06
2019-05-03T16:38:55.508Z,11.18
2019-05-03T16:41:24.857Z,10.97
2019-05-03T16:43:53.405Z,10.92
2019-05-03T16:46:21.885Z,11.03
2019-05-03T16:48:50.354Z,11.06
2019-05-03T16:51:18.848Z,11.09
2019-05-03T16:53:47.300Z,11.11
2019-05-03T16:56:17.123Z,11.16
2019-05-03T16:58:45.842Z,11.14
2019-05-03T17:01:17.854Z,11.04
2019-05-03T17:03:49.144Z,10.84
2019-05-03T17:06:39.285Z,10.93
2019-05-03T17:09:14.535Z,10.96
2019-05-03T17:11:43.115Z,10.94
2019-05-03T17:14:11.598Z,10.88
2019-05-03T17:16:40.055Z,10.84
2019-05-03T17:19:08.506Z,10.86
2019-05-03T17:21:40.075Z,10.82
2019-05-03T17:24:08.531Z,10.81
2019-05-03T17:26:37.013Z,10.77
2019-05-03T17:29:05.484Z,10.76
2019-05-03T17:31:35.233Z,10.65
2019-05-03T17:34:05.563Z,10.68
2019-05-03T17:36:34.450Z,10.68
2019-05-03T17:39:04.685Z,10.60
2019-05-03T17:41:45.258Z,10.76
2019-05-03T17:44:27.628Z,10.74
2019-05-03T17:46:56.109Z,10.76
2019-05-03T17:49:24.577Z,10.71
2019-05-03T17:51:55.417Z,10.67
2019-05-03T17:54:28.405Z,10.71
2019-05-03T17:57:07.814Z,10.71
2019-05-03T17:59:40.615Z,10.77
2019-05-03T18:02:16.725Z,10.70
2019-05-03T18:04:47.101Z,10.68
2019-05-03T18:07:17.235Z,10.60
2019-05-03T18:09:47.325Z,10.73
2019-05-03T18:12:15.892Z,10.64
2019-05-03T18:14:45.126Z,10.56
2019-05-03T18:17:14.762Z,10.69
2019-05-03T18:19:44.842Z,10.69
2019-05-03T18:22:15.300Z,10.61
2019-05-03T18:24:45.509Z,10.74
2019-05-03T18:27:15.030Z,10.65
2019-05-03T18:29:44.989Z,10.53
2019-05-03T18:32:14.710Z,10.60
2019-05-03T18:34:45.222Z,10.54
2019-05-03T18:37:15.215Z,10.55
2019-05-03T18:39:45.267Z,10.65
2019-05-03T18:42:15.505Z,10.43
2019-05-03T18:44:45.621Z,10.44
2019-05-03T18:47:15.861Z,10.47
2019-05-03T18:49:44.730Z,10.38
2019-05-03T18:52:14.922Z,10.32
2019-05-03T18:54:44.487Z,10.44
2019-05-03T18:57:13.178Z,10.41
2019-05-03T18:59:41.661Z,10.36
2019-05-03T19:02:10.223Z,10.34
2019-05-03T19:04:52.323Z,10.37
2019-05-03T19:07:37.465Z,10.41
2019-05-03T19:10:11.635Z,10.27
2019-05-03T19:12:58.078Z,10.25
2019-05-03T19:15:28.222Z,10.24
2019-05-03T19:18:00.981Z,10.25
2019-05-03T19:20:29.461Z,10.27
2019-05-03T19:22:57.963Z,10.28
2019-05-03T19:25:26.452Z,10.18
2019-05-03T19:27:54.925Z,10.27
2019-05-03T19:30:24.502Z,10.21
2019-05-03T19:32:55.060Z,10.28
2019-05-03T19:35:27.275Z,10.25
2019-05-03T19:37:55.480Z,10.16
2019-05-03T19:40:25.639Z,10.28
2019-05-03T19:42:55.211Z,10.28
2019-05-03T19:45:24.833Z,10.27
2019-05-03T19:47:55.218Z,10.19
2019-05-03T19:50:26.973Z,10.17
2019-05-03T19:53:07.933Z,10.21
2019-05-03T19:55:36.433Z,10.19
2019-05-03T19:58:05.552Z,10.18
2019-05-03T20:00:38.723Z,10.10
2019-05-03T20:03:08.841Z,10.11
2019-05-03T20:05:54.009Z,10.09
2019-05-03T20:08:24.651Z,10.08
2019-05-03T20:10:55.002Z,10.09
2019-05-03T20:13:32.711Z,10.08
2019-05-03T20:15:55.540Z,10.13
2019-05-03T20:18:23.863Z,10.14
2019-05-03T20:20:52.370Z,10.05
2019-05-03T20:23:20.826Z,10.01
2019-05-03T20:25:49.312Z,10.10
2019-05-03T20:28:17.782Z,10.07
2019-05-03T20:30:46.237Z,9.84
2019-05-03T20:33:14.712Z,9.80
2019-05-03T20:35:44.991Z,9.75
2019-05-03T20:38:15.119Z,9.78
2019-05-03T20:40:45.056Z,9.71
2019-05-03T20:43:21.338Z,9.70
2019-05-03T20:45:54.700Z,9.72
2019-05-03T20:48:25.028Z,9.86
2019-05-03T20:50:55.117Z,9.73
2019-05-03T20:53:25.139Z,9.66
2019-05-03T20:55:54.587Z,9.61
2019-05-03T20:58:25.095Z,9.56
2019-05-03T21:00:54.516Z,9.64
2019-05-03T21:03:24.764Z,9.68
2019-05-03T21:05:55.259Z,9.64
2019-05-03T21:08:25.468Z,9.63
2019-05-03T21:10:55.187Z,9.63
2019-05-03T21:13:25.243Z,9.59
2019-05-03T21:15:55.629Z,9.63
2019-05-03T21:18:28.213Z,9.63
2019-05-03T21:20:58.345Z,9.67
2019-05-03T21:23:31.501Z,9.59
2019-05-03T21:26:13.281Z,9.60
2019-05-03T21:28:40.212Z,9.53
2019-05-03T21:31:08.662Z,9.54
2019-05-03T21:33:37.153Z,9.55
2019-05-03T21:36:05.814Z,9.58
2019-05-03T21:38:35.525Z,9.51
2019-05-03T21:41:05.324Z,9.60
2019-05-03T21:43:34.786Z,9.53
2019-05-03T21:46:21.544Z,9.53
2019-05-03T21:49:00.772Z,9.53
2019-05-03T21:51:29.252Z,9.52
2019-05-03T21:53:57.753Z,9.53
2019-05-03T21:56:26.191Z,9.58
2019-05-03T21:58:55.323Z,9.54
2019-05-03T22:01:25.945Z,9.50
2019-05-03T22:03:54.647Z,9.54
2019-05-03T22:06:24.634Z,9.48
2019-05-03T22:08:55.273Z,9.48
2019-05-03T22:11:25.159Z,9.43
2019-05-03T22:13:57.048Z,9.44
2019-05-03T22:16:39.357Z,9.32
2019-05-03T22:19:07.836Z,9.40
2019-05-03T22:21:56.087Z,9.34
2019-05-03T22:24:28.772Z,9.30
2019-05-03T22:26:58.857Z,9.23
2019-05-03T22:29:27.337Z,9.28
2019-05-03T22:31:55.858Z,9.17
2019-05-03T22:34:25.815Z,9.23
2019-05-03T22:36:54.947Z,9.32
2019-05-03T22:39:25.010Z,9.28
2019-05-03T22:41:53.778Z,9.17
2019-05-03T22:44:22.295Z,9.18
2019-05-03T22:46:50.750Z,9.22
2019-05-03T22:49:19.216Z,9.14
2019-05-03T22:51:47.686Z,9.10
2019-05-03T22:54:16.150Z,9.14
2019-05-03T22:56:44.919Z,9.17
2019-05-03T22:59:14.802Z,9.09
2019-05-03T23:01:45.499Z,9.08
2019-05-03T23:04:14.712Z,9.10
2019-05-03T23:06:46.755Z,9.11
2019-05-03T23:09:15.674Z,8.99
2019-05-03T23:11:44.746Z,8.96
2019-05-03T23:14:15.046Z,9.00
2019-05-03T23:16:44.869Z,8.92
2019-05-03T23:19:14.886Z,8.94
2019-05-03T23:21:51.228Z,8.91
2019-05-03T23:24:19.684Z,8.88
2019-05-03T23:26:48.172Z,8.94
2019-05-03T23:29:16.627Z,8.74
2019-05-03T23:31:45.120Z,8.90
2019-05-03T23:34:13.586Z,8.79
2019-05-03T23:36:42.067Z,8.87
2019-05-03T23:39:10.533Z,8.90
2019-05-03T23:41:39.012Z,8.90
2019-05-03T23:44:07.461Z,8.74
2019-05-03T23:46:37.580Z,8.68
2019-05-03T23:49:06.038Z,8.80
2019-05-03T23:51:51.300Z,8.81
2019-05-03T23:54:19.752Z,8.62
2019-05-03T23:56:48.239Z,8.59
2019-05-03T23:59:16.763Z,8.75
